createdAt,value
2023-04-01T00:01:06.878Z,1.60
2023-04-01T00:07:08.599Z,1.38
2023-04-01T00:13:10.266Z,1.30
2023-04-01T00:19:11.677Z,1.40
2023-04-01T00:25:13.244Z,1.43
2023-04-01T00:31:15.441Z,1.42
2023-04-01T00:37:17.214Z,1.35
2023-04-01T00:43:20.412Z,1.07
2023-04-01T00:49:31.946Z,1.17
2023-04-01T00:55:36.378Z,1.00
2023-04-01T01:01:38.199Z,1.00
2023-04-01T01:07:48.791Z,1.00
2023-04-01T01:13:59.139Z,1.00
2023-04-01T01:20:22.976Z,1.20
2023-04-01T01:26:30.640Z,1.30
2023-04-01T01:32:51.157Z,1.17
2023-04-01T01:38:52.720Z,1.20
2023-04-01T01:44:55.322Z,1.10
2023-04-01T01:50:57.083Z,1.30
2023-04-01T01:57:10.253Z,1.13
2023-04-01T02:03:15.594Z,1.50
2023-04-01T02:09:17.362Z,1.60
2023-04-01T02:15:20.542Z,1.47
2023-04-01T02:21:23.169Z,1.02
2023-04-01T02:27:25.215Z,1.07
2023-04-01T02:33:28.091Z,1.20
2023-04-01T02:39:29.595Z,1.42
2023-04-01T02:45:31.161Z,1.03
2023-04-01T02:51:33.420Z,1.20
2023-04-01T02:57:35.003Z,1.10
2023-04-01T03:03:36.510Z,0.80
2023-04-01T03:09:38.394Z,1.20
2023-04-01T03:15:39.956Z,0.80
2023-04-01T03:21:41.443Z,0.98
2023-04-01T03:27:42.890Z,1.33
2023-04-01T03:33:44.480Z,1.20
2023-04-01T03:39:46.533Z,1.23
2023-04-01T03:45:48.477Z,1.40
2023-04-01T03:51:50.337Z,1.30
2023-04-01T03:57:51.880Z,1.40
2023-04-01T04:03:53.974Z,1.42
2023-04-01T04:09:57.177Z,1.55
2023-04-01T04:15:59.094Z,1.57
2023-04-01T04:22:02.376Z,1.50
2023-04-01T04:28:04.476Z,1.30
2023-04-01T04:34:06.011Z,1.40
2023-04-01T04:40:10.673Z,1.50
2023-04-01T04:46:12.388Z,1.30
2023-04-01T04:52:14.182Z,1.15
2023-04-01T04:58:15.989Z,1.30
2023-04-01T05:04:19.051Z,1.48
2023-04-01T05:10:22.332Z,1.20
2023-04-01T05:16:24.529Z,1.67
2023-04-01T05:22:26.407Z,1.38
2023-04-01T05:28:28.118Z,1.10
2023-04-01T05:34:29.579Z,1.30
2023-04-01T05:40:31.435Z,1.00
2023-04-01T05:46:33.056Z,1.10
2023-04-01T05:52:44.058Z,1.10
2023-04-01T05:58:47.776Z,0.87
2023-04-01T06:04:49.242Z,1.10
2023-04-01T06:10:53.509Z,0.98
2023-04-01T06:17:19.814Z,1.00
2023-04-01T06:23:29.410Z,1.00
2023-04-01T06:29:50.502Z,1.33
2023-04-01T06:36:12.325Z,1.20
2023-04-01T06:42:32.491Z,1.20
2023-04-01T06:48:58.941Z,1.30
2023-04-01T06:55:50.232Z,1.50
2023-04-01T07:02:05.640Z,1.93
2023-04-01T07:08:10.662Z,1.30
2023-04-01T07:14:23.043Z,1.50
2023-04-01T07:20:27.723Z,1.70
2023-04-01T07:26:29.823Z,1.70
2023-04-01T07:32:43.253Z,1.77
2023-04-01T07:39:05.983Z,1.42
2023-04-01T07:45:48.014Z,1.70
2023-04-01T07:52:08.653Z,1.70
2023-04-01T07:58:19.084Z,1.52
2023-04-01T08:04:43.035Z,1.17
2023-04-01T08:10:52.667Z,1.00
2023-04-01T08:17:19.393Z,0.63
2023-04-01T08:23:25.449Z,0.90
2023-04-01T08:29:36.853Z,0.77
2023-04-01T08:35:41.900Z,0.70
2023-04-01T08:41:52.730Z,0.63
2023-04-01T08:48:20.452Z,0.80
2023-04-01T08:54:40.314Z,0.70
2023-04-01T09:01:03.871Z,1.50
2023-04-01T09:07:17.671Z,0.70
2023-04-01T09:13:27.234Z,0.60
2023-04-01T09:19:34.598Z,0.75
2023-04-01T09:25:52.519Z,0.80
2023-04-01T09:32:02.699Z,0.90
2023-04-01T09:38:41.464Z,0.90
2023-04-01T09:44:51.596Z,0.80
2023-04-01T09:50:56.905Z,0.70
2023-04-01T09:57:17.353Z,0.80
2023-04-01T10:03:37.114Z,0.80
2023-04-01T10:09:38.748Z,0.80
2023-04-01T10:15:56.742Z,0.80
2023-04-01T10:22:22.249Z,0.80
2023-04-01T10:28:33.356Z,0.80
2023-04-01T10:35:26.095Z,0.85
2023-04-01T10:41:47.362Z,1.07
2023-04-01T10:48:23.651Z,1.00
2023-04-01T10:54:42.350Z,0.90
2023-04-01T11:01:24.268Z,0.90
2023-04-01T11:07:55.889Z,0.90
2023-04-01T11:14:15.872Z,1.17
2023-04-01T11:20:29.948Z,0.90
2023-04-01T11:26:46.387Z,0.95
2023-04-01T11:33:08.535Z,0.90
2023-04-01T11:39:33.994Z,0.90
2023-04-01T11:45:42.617Z,1.77
2023-04-01T11:52:09.689Z,1.60
2023-04-01T11:58:17.619Z,0.60
2023-04-01T12:04:28.224Z,0.50
2023-04-01T12:10:48.393Z,0.60
2023-04-01T12:16:52.765Z,0.60
2023-04-01T12:23:16.391Z,0.70
2023-04-01T12:29:37.035Z,0.77
2023-04-01T12:35:56.200Z,0.60
2023-04-01T12:42:06.397Z,1.10
2023-04-01T12:48:26.739Z,0.70
2023-04-01T12:54:49.888Z,0.60
2023-04-01T13:00:54.420Z,0.93
2023-04-01T13:07:08.885Z,0.80
2023-04-01T13:13:13.087Z,0.80
2023-04-01T13:19:25.818Z,0.97
2023-04-01T13:25:32.267Z,0.60
2023-04-01T13:31:33.715Z,0.60
2023-04-01T13:37:47.592Z,0.57
2023-04-01T13:43:52.795Z,0.70
2023-04-01T13:50:02.711Z,0.70
2023-04-01T13:56:23.067Z,0.70
2023-04-01T14:02:31.899Z,0.70
2023-04-01T14:08:33.306Z,0.90
2023-04-01T14:14:47.377Z,0.82
2023-04-01T14:20:52.936Z,0.63
2023-04-01T14:27:02.586Z,0.70
2023-04-01T14:33:22.721Z,0.80
2023-04-01T14:39:42.696Z,0.63
2023-04-01T14:46:00.269Z,0.80
2023-04-01T14:52:06.689Z,0.83
2023-04-01T14:58:08.066Z,0.93
2023-04-01T15:04:15.812Z,0.90
2023-04-01T15:10:32.516Z,0.57
2023-04-01T15:16:42.411Z,0.70
2023-04-01T15:22:49.003Z,0.70
2023-04-01T15:29:00.991Z,0.80
2023-04-01T15:35:34.915Z,1.40
2023-04-01T15:41:55.219Z,2.10
2023-04-01T15:48:01.513Z,1.42
2023-04-01T15:54:10.416Z,2.10
2023-04-01T16:00:21.421Z,3.47
2023-04-01T16:06:32.650Z,2.85
2023-04-01T16:12:37.076Z,1.57
2023-04-01T16:18:57.295Z,1.85
2023-04-01T16:25:17.788Z,2.30
2023-04-01T16:31:33.632Z,2.75
2023-04-01T16:37:40.553Z,3.00
2023-04-01T16:43:47.326Z,2.47
2023-04-01T16:50:01.170Z,2.20
2023-04-01T16:56:02.611Z,2.27
2023-04-01T17:02:10.367Z,1.98
2023-04-01T17:08:30.993Z,2.17
2023-04-01T17:14:47.919Z,2.53
2023-04-01T17:21:08.020Z,2.45
2023-04-01T17:27:23.501Z,2.30
2023-04-01T17:33:34.662Z,2.30
2023-04-01T17:39:54.789Z,2.03
2023-04-01T17:46:04.487Z,2.13
2023-04-01T17:52:28.722Z,3.70
2023-04-01T17:58:44.171Z,4.40
2023-04-01T18:04:57.141Z,3.72
2023-04-01T18:11:06.753Z,3.13
2023-04-01T18:17:13.715Z,3.40
2023-04-01T18:23:59.157Z,4.50
2023-04-01T18:30:21.637Z,6.83
2023-04-01T18:36:43.083Z,4.10
2023-04-01T18:42:52.360Z,2.90
2023-04-01T18:49:13.045Z,3.00
2023-04-01T18:55:17.600Z,3.65
2023-04-01T19:01:27.285Z,3.80
2023-04-01T19:07:38.072Z,3.00
2023-04-01T19:13:54.469Z,2.10
2023-04-01T19:19:56.077Z,2.30
2023-04-01T19:25:59.682Z,2.10
2023-04-01T19:32:13.090Z,2.53
2023-04-01T19:38:27.156Z,2.10
2023-04-01T19:44:39.395Z,2.17
2023-04-01T19:50:50.738Z,2.40
2023-04-01T19:56:58.571Z,2.50
2023-04-01T20:03:23.272Z,2.50
2023-04-01T20:09:41.408Z,2.28
2023-04-01T20:15:47.681Z,2.38
2023-04-01T20:21:50.766Z,2.53
2023-04-01T20:27:56.845Z,2.20
2023-04-01T20:34:01.560Z,2.80
2023-04-01T20:40:21.730Z,2.35
2023-04-01T20:46:42.983Z,3.20
2023-04-01T20:52:50.569Z,2.63
2023-04-01T20:59:11.061Z,2.78
2023-04-01T21:05:29.458Z,2.80
2023-04-01T21:11:51.122Z,3.00
2023-04-01T21:18:16.301Z,2.80
2023-04-01T21:24:32.983Z,3.23
2023-04-01T21:30:59.882Z,3.15
2023-04-01T21:37:09.968Z,3.07
2023-04-01T21:43:23.345Z,3.28
2023-04-01T21:49:49.379Z,3.63
2023-04-01T21:56:06.004Z,3.50
2023-04-01T22:02:20.585Z,3.22
2023-04-01T22:08:27.252Z,3.10
2023-04-01T22:14:32.544Z,2.90
2023-04-01T22:20:34.018Z,3.10
2023-04-01T22:26:41.682Z,3.13
2023-04-01T22:32:47.925Z,3.20
2023-04-01T22:38:58.839Z,2.70
2023-04-01T22:45:03.038Z,3.05
2023-04-01T22:51:04.497Z,2.50
2023-04-01T22:57:09.477Z,2.80
2023-04-01T23:03:17.886Z,3.13
2023-04-01T23:09:29.378Z,3.07
2023-04-01T23:15:31.528Z,2.88
2023-04-01T23:21:38.849Z,3.20
2023-04-01T23:27:46.605Z,2.80
2023-04-01T23:33:53.654Z,2.85
2023-04-01T23:39:56.767Z,2.50
2023-04-01T23:45:59.717Z,2.67
2023-04-01T23:52:21.673Z,2.35
2023-04-01T23:58:29.120Z,2.40
